Jeffrey G Stover — WDI4806 — position and weather

sailwx.info

Track history (hours):
 
Tides and Currents Weather Stations Pressure Air Temp Water Temp Dewpoint Dewpoint Depression Visibility Wind Speed Wind Dir Waves Ship Positions

Jeffrey G Stover

Owner: ACBL River Operations LLC, Jeffersonville, IN. More information available from US FCC via Universal Licensing System and Coast Guard Vessel Documentation Center.

Last reported at 2018-Jan-20 01:06 UTC. Time now 2018-Jan-24 11:17 UTC.
Position N 33°14' W 091°06'.

Length 56 m; draft 3.1 m.

Type: Towing. MMSI: 367702190.

Date/timePositionNaut miles runAvg speedWind from/ knotsBaromVisibWave heightAir tempDewpointWater temp
2018-Jan-20 01:06N 33°14' W 091°06'0 4.3
2018-Jan-20 01:00N 33°13' W 091°06'3 4.4
2018-Jan-20 00:13N 33°10' W 091°05'24 3.5
2018-Jan-19 17:23N 32°46' W 091°09'2 4.3
2018-Jan-19 16:56N 32°45' W 091°09'5 2.6
2018-Jan-19 15:02N 32°41' W 091°05'0 5.1
2018-Jan-19 14:59N 32°41' W 091°05'2 4.9
2018-Jan-19 14:30N 32°40' W 091°08'2 4.2
2018-Jan-19 14:00N 32°38' W 091°09'2 4.2
2018-Jan-19 13:30N 32°36' W 091°09'2 4.7
2018-Jan-19 13:00N 32°35' W 091°07'2 4.1
2018-Jan-19 12:30N 32°33' W 091°06'2 4.8
2018-Jan-19 12:00N 32°30' W 091°07'2 5.0
2018-Jan-19 11:30N 32°28' W 091°06'3 5.1
2018-Jan-19 11:00N 32°26' W 091°04'2 4.8
2018-Jan-19 10:30N 32°26' W 091°01'2 4.0
2018-Jan-19 10:00N 32°24' W 090°59'2 4.3
2018-Jan-19 09:30N 32°22' W 091°00'1 2.6
2018-Jan-19 09:00N 32°21' W 090°59'3 5.4
2018-Jan-19 08:30N 32°21' W 090°56'2 4.4
2018-Jan-19 08:00N 32°20' W 090°54'2 4.3
2018-Jan-19 07:30N 32°18' W 090°56'0 0.1
2018-Jan-19 07:00N 32°18' W 090°56'0 0.0
2018-Jan-19 06:30N 32°18' W 090°56'0 0.0
2018-Jan-19 06:00N 32°18' W 090°56'0 0.0
2018-Jan-19 05:30N 32°18' W 090°56'0 0.0
2018-Jan-19 05:00N 32°18' W 090°56'0 0.0
2018-Jan-19 04:30N 32°18' W 090°56'0 0.0
2018-Jan-19 04:00N 32°18' W 090°56'0 0.0
2018-Jan-19 03:30N 32°18' W 090°56'0 0.0
2018-Jan-19 03:00N 32°18' W 090°56'0 0.0
2018-Jan-19 02:30N 32°18' W 090°56'0 0.0
2018-Jan-19 02:00N 32°18' W 090°56'0 0.0
2018-Jan-19 01:30N 32°18' W 090°56'0 0.0
2018-Jan-19 01:00N 32°18' W 090°56'0 0.0
2018-Jan-19 00:30N 32°18' W 090°56'0 0.0
2018-Jan-19 00:00N 32°18' W 090°56'0 0.0
2018-Jan-18 23:30N 32°18' W 090°56'0 0.0
2018-Jan-18 23:00N 32°18' W 090°56'0 0.0
2018-Jan-18 22:30N 32°18' W 090°56'0 0.0
2018-Jan-18 22:00N 32°18' W 090°56'0 0.0
2018-Jan-18 21:30N 32°18' W 090°56'0 0.0
2018-Jan-18 21:00N 32°18' W 090°56'0 0.0
2018-Jan-18 20:30N 32°18' W 090°56'0 0.0
2018-Jan-18 20:00N 32°18' W 090°56'0 0.0
2018-Jan-18 19:30N 32°18' W 090°56'0 0.0
2018-Jan-18 19:00N 32°18' W 090°56'0 0.0
2018-Jan-18 18:30N 32°18' W 090°56'0 0.0
2018-Jan-18 18:00N 32°18' W 090°56'0 0.0
2018-Jan-18 17:30N 32°18' W 090°56'0 0.0
2018-Jan-18 17:00N 32°18' W 090°56'0 0.0
2018-Jan-18 16:30N 32°18' W 090°56'0 0.0
2018-Jan-18 16:00N 32°18' W 090°56'0 0.0
2018-Jan-18 15:30N 32°18' W 090°56'0 0.0
2018-Jan-18 14:59N 32°18' W 090°56'0 0.0
2018-Jan-18 14:30N 32°18' W 090°56'0 0.0
2018-Jan-18 14:00N 32°18' W 090°56'0 0.0
2018-Jan-18 13:30N 32°18' W 090°56'0 0.0
2018-Jan-18 13:00N 32°18' W 090°56'0 0.2
2018-Jan-18 12:30N 32°18' W 090°56'1 2.1
2018-Jan-18 12:00N 32°17' W 090°56'2 4.6
2018-Jan-18 11:30N 32°16' W 090°58'2 4.6
2018-Jan-18 11:00N 32°13' W 090°59'2 4.6
2018-Jan-18 10:30N 32°11' W 090°60'2 4.8
2018-Jan-18 10:00N 32°09' W 091°00'2 4.4
2018-Jan-18 09:30N 32°07' W 091°02'2 3.3
2018-Jan-18 08:48N 32°08' W 091°05'1 4.2
2018-Jan-18 08:30N 32°08' W 091°06'2 4.3
2018-Jan-18 07:59N 32°06' W 091°05'2 4.7
2018-Jan-18 07:27N 32°04' W 091°03'3 5.2
2018-Jan-18 06:52N 32°01' W 091°05'3 4.9
2018-Jan-18 06:19N 31°59' W 091°07'  
Track history (hours):
 
Tides and Currents Weather Stations Pressure Air Temp Water Temp Dewpoint Dewpoint Depression Visibility Wind Speed Wind Dir Waves Ship Positions

Jeffrey G Stover

Owner: ACBL River Operations LLC, Jeffersonville, IN. More information available from US FCC via Universal Licensing System and Coast Guard Vessel Documentation Center.

Last reported at 2018-Jan-20 01:06 UTC. Time now 2018-Jan-24 11:17 UTC.
Position N 33°14' W 091°06'.

Length 56 m; draft 3.1 m.

Type: Towing. MMSI: 367702190.

Date/timePositionNaut miles runAvg speedWind from/ knotsBaromVisibWave heightAir tempDewpointWater temp
2018-Jan-20 01:06N 33°14' W 091°06'0 4.3
2018-Jan-20 01:00N 33°13' W 091°06'3 4.4
2018-Jan-20 00:13N 33°10' W 091°05'24 3.5
2018-Jan-19 17:23N 32°46' W 091°09'2 4.3
2018-Jan-19 16:56N 32°45' W 091°09'5 2.6
2018-Jan-19 15:02N 32°41' W 091°05'0 5.1
2018-Jan-19 14:59N 32°41' W 091°05'2 4.9
2018-Jan-19 14:30N 32°40' W 091°08'2 4.2
2018-Jan-19 14:00N 32°38' W 091°09'2 4.2
2018-Jan-19 13:30N 32°36' W 091°09'2 4.7
2018-Jan-19 13:00N 32°35' W 091°07'2 4.1
2018-Jan-19 12:30N 32°33' W 091°06'2 4.8
2018-Jan-19 12:00N 32°30' W 091°07'2 5.0
2018-Jan-19 11:30N 32°28' W 091°06'3 5.1
2018-Jan-19 11:00N 32°26' W 091°04'2 4.8
2018-Jan-19 10:30N 32°26' W 091°01'2 4.0
2018-Jan-19 10:00N 32°24' W 090°59'2 4.3
2018-Jan-19 09:30N 32°22' W 091°00'1 2.6
2018-Jan-19 09:00N 32°21' W 090°59'3 5.4
2018-Jan-19 08:30N 32°21' W 090°56'2 4.4
2018-Jan-19 08:00N 32°20' W 090°54'2 4.3
2018-Jan-19 07:30N 32°18' W 090°56'0 0.1
2018-Jan-19 07:00N 32°18' W 090°56'0 0.0
2018-Jan-19 06:30N 32°18' W 090°56'0 0.0
2018-Jan-19 06:00N 32°18' W 090°56'0 0.0
2018-Jan-19 05:30N 32°18' W 090°56'0 0.0
2018-Jan-19 05:00N 32°18' W 090°56'0 0.0
2018-Jan-19 04:30N 32°18' W 090°56'0 0.0
2018-Jan-19 04:00N 32°18' W 090°56'0 0.0
2018-Jan-19 03:30N 32°18' W 090°56'0 0.0
2018-Jan-19 03:00N 32°18' W 090°56'0 0.0
2018-Jan-19 02:30N 32°18' W 090°56'0 0.0
2018-Jan-19 02:00N 32°18' W 090°56'0 0.0
2018-Jan-19 01:30N 32°18' W 090°56'0 0.0
2018-Jan-19 01:00N 32°18' W 090°56'0 0.0
2018-Jan-19 00:30N 32°18' W 090°56'0 0.0
2018-Jan-19 00:00N 32°18' W 090°56'0 0.0
2018-Jan-18 23:30N 32°18' W 090°56'0 0.0
2018-Jan-18 23:00N 32°18' W 090°56'0 0.0
2018-Jan-18 22:30N 32°18' W 090°56'0 0.0
2018-Jan-18 22:00N 32°18' W 090°56'0 0.0
2018-Jan-18 21:30N 32°18' W 090°56'0 0.0
2018-Jan-18 21:00N 32°18' W 090°56'0 0.0
2018-Jan-18 20:30N 32°18' W 090°56'0 0.0
2018-Jan-18 20:00N 32°18' W 090°56'0 0.0
2018-Jan-18 19:30N 32°18' W 090°56'0 0.0
2018-Jan-18 19:00N 32°18' W 090°56'0 0.0
2018-Jan-18 18:30N 32°18' W 090°56'0 0.0
2018-Jan-18 18:00N 32°18' W 090°56'0 0.0
2018-Jan-18 17:30N 32°18' W 090°56'0 0.0
2018-Jan-18 17:00N 32°18' W 090°56'0 0.0
2018-Jan-18 16:30N 32°18' W 090°56'0 0.0
2018-Jan-18 16:00N 32°18' W 090°56'0 0.0
2018-Jan-18 15:30N 32°18' W 090°56'0 0.0
2018-Jan-18 14:59N 32°18' W 090°56'0 0.0
2018-Jan-18 14:30N 32°18' W 090°56'0 0.0
2018-Jan-18 14:00N 32°18' W 090°56'0 0.0
2018-Jan-18 13:30N 32°18' W 090°56'0 0.0
2018-Jan-18 13:00N 32°18' W 090°56'0 0.2
2018-Jan-18 12:30N 32°18' W 090°56'1 2.1
2018-Jan-18 12:00N 32°17' W 090°56'2 4.6
2018-Jan-18 11:30N 32°16' W 090°58'2 4.6
2018-Jan-18 11:00N 32°13' W 090°59'2 4.6
2018-Jan-18 10:30N 32°11' W 090°60'2 4.8
2018-Jan-18 10:00N 32°09' W 091°00'2 4.4
2018-Jan-18 09:30N 32°07' W 091°02'2 3.3
2018-Jan-18 08:48N 32°08' W 091°05'1 4.2
2018-Jan-18 08:30N 32°08' W 091°06'2 4.3
2018-Jan-18 07:59N 32°06' W 091°05'2 4.7
2018-Jan-18 07:27N 32°04' W 091°03'3 5.2
2018-Jan-18 06:52N 32°01' W 091°05'3 4.9
2018-Jan-18 06:19N 31°59' W 091°07'  

Dump ship's entire track history